Latest Weather Observations for Moruya Airport

IDN60801

Issued at 2:03 pm EST Saturday 15 June 2024 (issued every 10 minutes, with the page automatically refreshed every 10 minutes)

About weather observations | Map of weather stations | Latest weather observations for NSW | Other Formats
Station Details ID: 069148 Name: MORUYA AIRPORT AWS Lat: -35.90 Lon: 150.14 Height: 4.0 m
Data from the previous 72 hours. | See also: Recent months at Moruya Airport
Date/Time
EST
Temp
°C
App
Temp
°C
Dew
Point
°C
Rel
Hum
%
Delta-T
°C
Wind Press
QNH
hPa
Press
MSL
hPa
Rain since
9am
mm
Dir  Spd
km/h
Gust
km/h
Spd
kts
Gust
kts
15/02:00pm 15.2 11.2 6.7 57 4.1 SSW 17 28 9 15 1017.3 1017.3 0.0
15/01:30pm 14.9 10.9 6.7 58 4.0 SSW 17 26 9 14 1017.6 1017.6 0.0
15/01:00pm 14.9 10.3 6.7 58 4.0 S 20 30 11 16 1017.9 1017.9 0.0
15/12:30pm 15.0 10.1 6.8 58 4.0 SSW 22 33 12 18 1018.2 1018.2 0.0
15/12:00pm 15.5 11.1 7.5 59 4.0 SSW 20 32 11 17 1018.6 1018.6 0.0
15/11:30am 14.5 10.1 6.6 59 3.8 SSW 19 33 10 18 1018.9 1018.9 0.0
15/11:00am 14.0 9.6 7.3 64 3.3 SW 20 32 11 17 1019.3 1019.3 0.0
15/10:30am 13.0 9.0 6.6 65 3.1 SW 17 26 9 14 1019.7 1019.7 0.0
15/10:00am 11.9 8.0 7.2 73 2.3 SW 17 22 9 12 1019.9 1019.9 0.0
15/09:30am 11.5 7.6 7.0 74 2.1 SW 17 22 9 12 1019.8 1019.8 0.0
15/09:00am 11.2 7.7 7.3 77 1.9 SW 15 20 8 11 1019.8 1019.8 9.2
15/08:30am 10.7 7.6 7.4 80 1.6 SW 13 17 7 9 1019.7 1019.7 9.2
15/08:00am 10.7 7.6 7.4 80 1.6 SW 13 17 7 9 1019.5 1019.5 9.2
15/07:30am 10.6 7.1 7.1 79 1.7 SW 15 19 8 10 1019.4 1019.4 9.2
15/07:00am 10.5 6.7 7.4 81 1.5 SW 17 22 9 12 1019.2 1019.2 9.2
15/06:30am 10.2 7.5 7.3 82 1.4 SW 11 13 6 7 1019.1 1019.1 9.2
15/06:00am 10.4 7.8 7.6 83 1.3 SSW 11 15 6 8 1019.0 1019.0 9.2
15/05:30am 10.2 7.2 7.6 84 1.2 SW 13 17 7 9 1018.9 1018.9 9.2
15/05:00am 10.4 7.0 7.8 84 1.2 SW 15 19 8 10 1018.9 1018.9 9.2
15/04:30am 10.4 7.4 7.8 84 1.3 WSW 13 17 7 9 1018.8 1018.8 9.2
15/04:00am 10.6 7.6 7.8 83 1.3 WSW 13 17 7 9 1018.7 1018.7 9.2
15/03:30am 10.5 7.6 8.1 85 1.2 WSW 13 19 7 10 1018.9 1018.9 9.2
15/03:00am 10.3 6.6 8.1 86 1.1 SW 17 22 9 12 1018.8 1018.8 9.2
15/02:30am 10.3 6.3 8.1 86 1.1 SW 19 24 10 13 1018.9 1018.9 9.2
15/02:00am 10.3 6.3 8.1 86 1.1 SW 19 26 10 14 1019.0 1019.0 9.2
15/01:30am 10.1 6.4 8.0 87 1.0 SW 17 20 9 11 1019.1 1019.1 9.2
15/01:00am 10.4 7.2 8.3 87 1.0 WSW 15 22 8 12 1019.0 1019.0 9.2
15/12:30am 10.6 7.5 8.7 88 0.9 WSW 15 19 8 10 1019.2 1019.2 9.2
15/12:00am 10.6 7.9 9.0 90 0.8 WSW 13 19 7 10 1019.3 1019.3 9.2
 
Date/Time
EST
Temp
°C
App
Temp
°C
Dew
Point
°C
Rel
Hum
%
Delta-T
°C
Wind Press
QNH
hPa
Press
MSL
hPa
Rain since
9am
mm
Dir  Spd
km/h
Gust
km/h
Spd
kts
Gust
kts
14/11:30pm 10.6 8.7 9.2 91 0.7 SW 9 17 5 9 1019.6 1019.6 9.2
14/11:00pm 10.7 8.5 9.3 91 0.7 WSW 11 15 6 8 1020.0 1020.0 9.0
14/10:30pm 10.8 7.9 9.6 92 0.6 WSW 15 20 8 11 1019.9 1019.9 8.8
14/10:00pm 10.9 8.4 9.7 92 0.6 WSW 13 20 7 11 1019.9 1019.9 8.8
14/09:30pm 11.0 7.4 9.8 92 0.6 SW 19 28 10 15 1019.9 1019.9 8.4
14/09:00pm 10.9 8.4 9.8 93 0.6 WSW 13 19 7 10 1020.1 1020.1 8.4
14/08:30pm 11.0 8.6 9.9 93 0.6 WSW 13 19 7 10 1020.0 1020.0 8.4
14/08:00pm 11.2 9.2 10.1 93 0.6 WSW 11 15 6 8 1020.0 1020.0 8.4
14/07:40pm 11.3 10.1 10.4 94 0.5 SSW 7 9 4 5 1020.1 1020.1 8.4
14/07:30pm 11.4 10.3 10.5 94 0.5 SSW 7 9 4 5 1020.2 1020.2 8.2
14/07:15pm 11.4 9.5 10.5 94 0.5 SSW 11 15 6 8 1020.3 1020.3 8.0
14/07:00pm 11.3 9.4 10.4 94 0.5 SW 11 15 6 8 1020.2 1020.2 7.8
14/06:55pm 11.4 9.5 10.5 94 0.5 SW 11 15 6 8 1020.2 1020.2 7.6
14/06:30pm 11.4 9.5 10.5 94 0.5 SW 11 13 6 7 1020.0 1020.0 6.8
14/06:28pm 11.4 9.5 10.5 94 0.5 SW 11 13 6 7 1020.0 1020.0 6.8
14/06:00pm 11.6 9.7 10.5 93 0.6 SW 11 15 6 8 1019.8 1019.8 4.4
14/05:30pm 11.7 8.3 10.4 92 0.7 SSW 19 26 10 14 1019.8 1019.8 1.8
14/05:26pm 11.7 8.6 10.4 92 0.7 SSW 17 26 9 14 1019.8 1019.8 1.6
14/05:15pm 11.8 9.1 10.4 91 0.7 SW 15 24 8 13 1019.7 1019.7 0.8
14/05:00pm 11.9 10.3 10.3 90 0.8 SW 9 13 5 7 1019.6 1019.6 0.4
14/04:58pm 11.9 10.3 10.3 90 0.8 SW 9 13 5 7 1019.6 1019.6 0.4
14/04:34pm 12.6 9.8 10.1 85 1.3 SSE 15 24 8 13 1019.5 1019.5 0.0
14/04:30pm 12.9 10.3 9.5 80 1.7 S 13 17 7 9 1019.5 1019.5 0.0
14/04:00pm 13.7 10.9 8.7 72 2.5 SSW 13 17 7 9 1019.2 1019.2 0.0
14/03:30pm 14.3 12.0 8.9 70 2.7 SSW 11 15 6 8 1019.0 1019.0 0.0
14/03:00pm 14.3 12.0 9.1 71 2.6 SSW 11 15 6 8 1019.1 1019.1 0.0
14/02:30pm 14.3 11.5 8.7 69 2.8 SSW 13 17 7 9 1019.0 1019.0 0.0
14/02:00pm 14.6 11.2 9.2 70 2.8 SW 17 24 9 13 1019.2 1019.2 0.0
14/01:30pm 15.0 12.1 8.3 64 3.4 SW 13 19 7 10 1019.3 1019.3 0.0
14/01:00pm 14.9 12.8 8.2 64 3.4 SSW 9 13 5 7 1019.6 1019.6 0.0
14/12:30pm 14.3 11.3 7.6 64 3.3 SW 13 22 7 12 1019.9 1019.9 0.0
14/12:00pm 14.9 11.9 7.9 63 3.5 SW 13 20 7 11 1020.2 1020.2 0.0
14/11:30am 13.3 11.0 7.3 67 2.9 WSW 9 13 5 7 1020.6 1020.6 0.0
14/11:00am 11.4 9.6 7.1 75 2.0 WSW 6 9 3 5 1021.0 1021.0 0.0
14/10:30am 11.0 8.4 6.0 71 2.3 W 9 13 5 7 1021.6 1021.6 0.0
14/10:00am 11.0 8.4 6.0 71 2.3 W 9 13 5 7 1021.6 1021.6 0.0
14/09:30am 9.6 7.3 5.8 77 1.7 WSW 7 11 4 6 1021.7 1021.7 0.0
14/09:00am 9.1 6.0 5.7 79 1.5 W 11 15 6 8 1021.7 1021.7 0.0
14/08:30am 8.0 4.9 5.5 84 1.1 WSW 11 15 6 8 1021.5 1021.5 0.0
14/08:00am 7.3 4.5 5.3 87 0.9 WSW 9 11 5 6 1021.4 1021.4 0.0
14/07:30am 6.5 3.6 4.8 89 0.7 WSW 9 13 5 7 1021.2 1021.2 0.0
14/07:00am 6.3 3.4 4.6 89 0.7 WSW 9 11 5 6 1020.9 1020.9 0.0
14/06:30am 6.6 4.0 4.4 86 0.9 W 7 9 4 5 1020.7 1020.7 0.0
14/06:00am 7.7 4.5 5.0 83 1.2 W 11 13 6 7 1020.8 1020.8 0.0
14/05:30am 7.8 4.6 5.1 83 1.2 WSW 11 15 6 8 1020.7 1020.7 0.0
14/05:00am 7.8 4.6 5.3 84 1.1 WSW 11 13 6 7 1020.6 1020.6 0.0
14/04:30am 7.7 4.9 5.2 84 1.1 WSW 9 11 5 6 1020.4 1020.4 0.0
14/04:00am 8.1 5.3 5.2 82 1.3 WSW 9 13 5 7 1020.5 1020.5 0.0
14/03:30am 8.7 5.5 5.3 79 1.5 W 11 15 6 8 1020.6 1020.6 0.0
14/03:00am 8.6 5.1 5.4 80 1.4 W 13 19 7 10 1020.9 1020.9 0.0
14/02:30am 8.3 4.7 5.2 81 1.4 W 13 17 7 9 1020.8 1020.8 0.0
14/02:00am 8.5 5.4 5.4 81 1.4 WSW 11 17 6 9 1020.9 1020.9 0.0
14/01:30am 8.5 5.8 5.4 81 1.4 WSW 9 13 5 7 1021.1 1021.1 0.0
14/01:00am 9.1 6.4 5.5 78 1.6 W 9 15 5 8 1021.4 1021.4 0.0
14/12:30am 9.4 6.4 5.8 78 1.6 W 11 17 6 9 1021.7 1021.7 0.0
14/12:00am 9.4 6.4 5.9 79 1.6 W 11 15 6 8 1021.8 1021.8 0.0
 
Date/Time
EST
Temp
°C
App
Temp
°C
Dew
Point
°C
Rel
Hum
%
Delta-T
°C
Wind Press
QNH
hPa
Press
MSL
hPa
Rain since
9am
mm
Dir  Spd
km/h
Gust
km/h
Spd
kts
Gust
kts
13/11:30pm 9.0 6.0 5.9 81 1.4 WSW 11 15 6 8 1021.9 1021.9 0.0
13/11:00pm 9.1 6.5 6.2 82 1.3 WSW 9 13 5 7 1022.0 1022.0 0.0
13/10:30pm 8.9 6.3 6.2 83 1.2 WSW 9 13 5 7 1021.9 1021.9 0.0
13/10:00pm 9.1 6.6 6.7 85 1.1 W 9 15 5 8 1022.1 1022.1 0.0
13/09:30pm 8.8 6.4 6.8 87 0.9 WSW 9 13 5 7 1022.2 1022.2 0.0
13/09:00pm 8.2 6.1 6.5 89 0.8 WSW 7 11 4 6 1022.1 1022.1 0.0
13/08:30pm 8.4 5.9 6.7 89 0.8 W 9 13 5 7 1022.1 1022.1 0.0
13/08:00pm 7.4 5.7 5.9 90 0.7 SSW 4 9 2 5 1022.0 1022.0 0.0
13/07:30pm 8.2 7.4 6.5 89 0.8 CALM 0 0 0 0 1021.9 1021.9 0.0
13/07:00pm 8.2 6.9 6.0 86 1.0 SSW 2 6 1 3 1021.7 1021.7 0.0
13/06:30pm 8.9 7.4 6.7 86 1.0 SSW 4 7 2 4 1021.5 1021.5 0.0
13/06:00pm 9.5 8.8 6.8 83 1.3 CALM 0 0 0 0 1021.2 1021.2 0.0
13/05:30pm 9.9 9.1 6.6 80 1.5 CALM 0 0 0 0 1020.9 1020.9 0.0
13/05:00pm 10.6 9.7 6.2 74 2.0 CALM 0 0 0 0 1020.6 1020.6 0.0
13/04:30pm 12.1 10.5 6.4 68 2.7 SSW 4 7 2 4 1020.4 1020.4 0.0
13/04:00pm 13.3 11.2 5.7 60 3.6 SSW 6 7 3 4 1020.1 1020.1 0.0
13/03:30pm 14.1 10.5 4.9 54 4.3 SW 13 15 7 8 1020.1 1020.1 0.0
13/03:00pm 15.2 11.4 5.7 53 4.5 SW 15 20 8 11 1019.9 1019.9 0.0
13/02:30pm 14.2 11.1 5.6 56 4.1 WSW 11 15 6 8 1019.9 1019.9 0.0
13/02:00pm 13.6 10.4 5.0 56 4.0 SW 11 15 6 8 1019.7 1019.7 0.0
13/01:30pm 14.3 10.3 4.9 53 4.4 SW 15 20 8 11 1020.1 1020.1 0.0
13/01:00pm 14.3 9.9 4.6 52 4.5 SW 17 26 9 14 1020.7 1020.7 0.0
13/12:30pm 14.0 8.9 4.0 51 4.6 SW 20 28 11 15 1020.5 1020.5 0.0
13/12:00pm 14.6 9.7 4.3 50 4.7 SW 19 26 10 14 1020.7 1020.7 0.0
13/11:30am 14.1 8.7 4.7 53 4.4 SW 22 33 12 18 1021.1 1021.1 0.0
13/11:00am 14.1 9.3 4.9 54 4.3 SW 19 26 10 14 1021.0 1021.0 0.0
13/10:30am 14.3 9.3 4.6 52 4.5 WSW 20 28 11 15 1021.6 1021.6 0.0
13/10:00am 13.2 9.2 5.1 58 3.7 WSW 15 19 8 10 1021.8 1021.8 0.0
13/09:30am 11.9 8.6 4.4 60 3.4 W 11 15 6 8 1021.5 1021.5 0.0
13/09:00am 10.1 6.7 3.8 65 2.8 W 11 19 6 10 1021.2 1021.2 2.6
13/08:30am 9.2 6.1 3.8 69 2.4 W 9 13 5 7 1021.0 1021.0 2.6
13/08:00am 7.3 4.2 3.5 77 1.6 WSW 9 15 5 8 1020.8 1020.8 2.6
13/07:30am 5.3 1.7 3.0 85 0.9 SW 11 13 6 7 1021.0 1021.0 2.6
13/07:00am 5.5 2.3 2.8 83 1.1 WSW 9 13 5 7 1020.9 1020.9 2.6
13/06:30am 6.2 3.1 3.4 82 1.2 W 9 13 5 7 1020.8 1020.8 2.6
13/06:00am 6.4 3.2 2.9 78 1.4 W 9 11 5 6 1020.4 1020.4 2.6
13/05:30am 6.1 2.8 2.4 77 1.5 W 9 15 5 8 1020.4 1020.4 2.6
13/05:00am 5.5 1.9 2.7 82 1.1 W 11 15 6 8 1020.2 1020.2 2.6
13/04:30am 6.9 3.6 2.4 73 1.9 W 9 15 5 8 1019.1 1019.1 2.6
13/04:00am 6.9 3.7 2.8 75 1.7 W 9 13 5 7 1019.5 1019.5 2.6
13/03:30am 6.4 3.2 2.9 78 1.5 W 9 13 5 7 1019.5 1019.5 2.6
13/03:00am 5.7 2.4 2.7 81 1.2 WNW 9 13 5 7 1019.7 1019.7 2.6
13/02:30am 5.5 2.2 2.3 80 1.3 WSW 9 15 5 8 1019.6 1019.6 2.6
13/02:00am 6.4 2.7 2.5 76 1.6 W 11 15 6 8 1019.6 1019.6 2.6
13/01:30am 5.8 2.6 2.8 81 1.2 W 9 15 5 8 1019.5 1019.5 2.6
13/01:00am 5.5 2.8 3.7 88 0.8 W 7 11 4 6 1019.5 1019.5 2.6
13/12:30am 4.8 2.0 3.3 90 0.6 W 7 9 4 5 1019.6 1019.6 2.6
13/12:00am 4.8 1.6 3.0 88 0.7 SW 9 11 5 6 1019.5 1019.5 2.6
 
Date/Time
EST
Temp
°C
App
Temp
°C
Dew
Point
°C
Rel
Hum
%
Delta-T
°C
Wind Press
QNH
hPa
Press
MSL
hPa
Rain since
9am
mm
Dir  Spd
km/h
Gust
km/h
Spd
kts
Gust
kts
12/11:30pm 5.2 2.4 3.1 86 0.9 W 7 9 4 5 1019.6 1019.6 2.6
12/11:00pm 5.6 2.4 2.8 82 1.1 WSW 9 13 5 7 1019.7 1019.7 2.6
12/10:30pm 5.0 1.8 3.3 89 0.7 WNW 9 11 5 6 1019.6 1019.6 2.6
12/10:00pm 5.1 2.3 2.3 82 1.1 W 6 9 3 5 1019.3 1019.3 2.6
12/09:30pm 5.8 2.9 2.6 80 1.3 WSW 7 9 4 5 1019.1 1019.1 2.6
12/09:00pm 6.3 2.8 3.3 81 1.3 SW 11 13 6 7 1018.9 1018.9 2.6
12/08:30pm 5.8 3.0 3.0 82 1.2 W 7 9 4 5 1018.7 1018.7 2.6
12/08:00pm 6.9 4.2 2.4 73 1.8 SW 6 7 3 4 1018.2 1018.2 2.6
12/07:30pm 7.6 4.6 1.9 67 2.3 WSW 7 9 4 5 1017.7 1017.7 2.6
12/07:00pm 8.3 5.0 2.3 66 2.5 SW 9 11 5 6 1017.1 1017.1 2.6
12/06:30pm 6.9 3.7 3.2 77 1.6 SW 9 11 5 6 1016.7 1016.7 2.6
12/06:00pm 8.2 4.9 2.4 67 2.4 SW 9 11 5 6 1016.2 1016.2 2.6
12/05:30pm 9.8 6.0 1.7 57 3.4 SW 11 17 6 9 1015.7 1015.7 2.6
12/05:00pm 11.2 7.4 1.5 51 4.1 SSW 11 17 6 9 1015.0 1015.0 2.6
12/04:30pm 11.6 7.3 1.3 49 4.3 SW 13 17 7 9 1014.3 1014.3 2.6
12/04:00pm 13.3 8.3 1.3 44 5.1 SSW 17 28 9 15 1013.4 1013.4 2.6
12/03:30pm 13.7 8.0 0.7 41 5.5 SSW 20 32 11 17 1012.6 1012.6 2.6
12/03:00pm 14.6 8.1 0.1 37 6.1 SSW 24 35 13 19 1011.8 1011.8 2.6
12/02:30pm 15.0 9.6 1.5 40 5.9 SSW 19 26 10 14 1011.2 1011.2 2.6

Other formats

Comma delimited format used in spreadsheet applications
http://www.bom.gov.au/fwo/IDN60801/IDN60801.95937.axf

JavaScript Object Notation format (JSON) in row-major order
http://www.bom.gov.au/fwo/IDN60801/IDN60801.95937.json

Data quality

Most of these data are generated automatically and are frequently updated. Quality checks on data are not normally performed. It is possible for incorrect values to appear. Refer to information at About Latest Weather Observations and please check the disclaimer before using these data.